createdAt,value
2019-02-11T00:02:11.027Z,1.87
2019-02-11T00:04:36.868Z,2.07
2019-02-11T00:07:05.461Z,1.90
2019-02-11T00:09:31.311Z,2.20
2019-02-11T00:11:57.157Z,1.90
2019-02-11T00:14:22.983Z,2.30
2019-02-11T00:16:48.821Z,2.17
2019-02-11T00:19:14.674Z,2.23
2019-02-11T00:21:40.595Z,2.40
2019-02-11T00:24:06.408Z,2.10
2019-02-11T00:26:32.269Z,2.00
2019-02-11T00:28:58.079Z,2.00
2019-02-11T00:31:24.023Z,2.10
2019-02-11T00:33:50.147Z,2.27
2019-02-11T00:36:17.932Z,1.90
2019-02-11T00:38:43.782Z,1.87
2019-02-11T00:41:09.621Z,2.10
2019-02-11T00:43:35.464Z,1.80
2019-02-11T00:46:01.302Z,1.80
2019-02-11T00:48:27.119Z,2.00
2019-02-11T00:50:52.976Z,1.97
2019-02-11T00:53:18.791Z,1.97
2019-02-11T00:55:44.649Z,1.80
2019-02-11T00:58:10.504Z,1.73
2019-02-11T01:00:36.332Z,1.40
2019-02-11T01:03:02.178Z,1.67
2019-02-11T01:05:28.013Z,1.40
2019-02-11T01:07:53.853Z,1.50
2019-02-11T01:10:19.776Z,1.20
2019-02-11T01:12:45.616Z,1.20
2019-02-11T01:15:11.561Z,1.30
2019-02-11T01:17:37.416Z,1.30
2019-02-11T01:20:06.440Z,1.20
2019-02-11T01:22:32.392Z,1.20
2019-02-11T01:24:58.219Z,1.30
2019-02-11T01:27:24.061Z,1.40
2019-02-11T01:29:49.885Z,1.60
2019-02-11T01:32:15.732Z,1.70
2019-02-11T01:34:41.553Z,1.80
2019-02-11T01:37:07.499Z,2.00
2019-02-11T01:39:33.322Z,2.10
2019-02-11T01:41:59.132Z,1.87
2019-02-11T01:44:24.987Z,1.60
2019-02-11T01:46:50.913Z,1.63
2019-02-11T01:49:16.751Z,1.57
2019-02-11T01:51:42.564Z,1.43
2019-02-11T01:54:08.407Z,1.50
2019-02-11T01:56:34.241Z,1.40
2019-02-11T01:59:00.110Z,1.60
2019-02-11T02:01:25.929Z,1.30
2019-02-11T02:03:51.775Z,1.30
2019-02-11T02:06:17.593Z,1.70
2019-02-11T02:08:43.443Z,1.50
2019-02-11T02:11:09.265Z,1.47
2019-02-11T02:13:35.104Z,1.67
2019-02-11T02:16:00.951Z,1.90
2019-02-11T02:18:26.745Z,2.10
2019-02-11T02:20:52.588Z,2.33
2019-02-11T02:23:18.400Z,2.57
2019-02-11T02:25:44.244Z,3.37
2019-02-11T02:28:10.075Z,3.53
2019-02-11T02:30:35.928Z,3.30
2019-02-11T02:33:01.731Z,3.60
2019-02-11T02:35:27.579Z,3.63
2019-02-11T02:37:53.409Z,4.00
2019-02-11T02:40:19.246Z,3.70
2019-02-11T02:42:45.063Z,3.70
2019-02-11T02:45:11.032Z,3.70
2019-02-11T02:47:36.882Z,3.63
2019-02-11T02:50:05.429Z,4.00
2019-02-11T02:52:31.269Z,3.70
2019-02-11T02:54:57.045Z,3.73
2019-02-11T02:57:22.878Z,4.17
2019-02-11T02:59:48.738Z,4.23
2019-02-11T03:02:15.198Z,3.93
2019-02-11T03:04:41.013Z,4.57
2019-02-11T03:07:06.845Z,4.30
2019-02-11T03:09:32.649Z,4.47
2019-02-11T03:11:58.489Z,4.33
2019-02-11T03:14:24.298Z,3.70
2019-02-11T03:16:50.139Z,4.23
2019-02-11T03:19:15.953Z,3.97
2019-02-11T03:21:41.803Z,4.13
2019-02-11T03:24:07.612Z,4.37
2019-02-11T03:26:33.464Z,3.33
2019-02-11T03:28:59.276Z,3.70
2019-02-11T03:31:25.116Z,3.37
2019-02-11T03:33:50.940Z,3.67
2019-02-11T03:36:16.758Z,4.03
2019-02-11T03:38:42.600Z,3.53
2019-02-11T03:41:08.445Z,3.80
2019-02-11T03:43:34.286Z,3.23
2019-02-11T03:46:00.118Z,3.00
2019-02-11T03:48:25.952Z,3.40
2019-02-11T03:50:51.879Z,3.97
2019-02-11T03:53:17.828Z,4.17
2019-02-11T03:55:43.753Z,5.10
2019-02-11T03:58:09.725Z,5.10
2019-02-11T04:00:36.156Z,5.77
2019-02-11T04:03:01.992Z,6.73
2019-02-11T04:05:27.900Z,7.10
2019-02-11T04:07:53.751Z,8.17
2019-02-11T04:10:19.559Z,9.37
2019-02-11T04:12:45.377Z,9.50
2019-02-11T04:15:11.319Z,9.97
2019-02-11T04:17:37.132Z,9.13
2019-02-11T04:20:05.169Z,10.40
2019-02-11T04:22:30.982Z,10.00
2019-02-11T04:24:56.827Z,9.23
2019-02-11T04:27:22.752Z,10.03
2019-02-11T04:29:48.589Z,11.17
2019-02-11T04:32:14.400Z,10.57
2019-02-11T04:34:40.255Z,10.97
2019-02-11T04:37:06.071Z,11.40
2019-02-11T04:39:31.905Z,10.03
2019-02-11T04:41:57.742Z,9.87
2019-02-11T04:44:23.592Z,8.17
2019-02-11T04:46:49.398Z,9.80
2019-02-11T04:49:15.251Z,8.77
2019-02-11T04:51:41.065Z,8.47
2019-02-11T04:54:06.886Z,8.67
2019-02-11T04:56:32.711Z,8.43
2019-02-11T04:58:58.591Z,8.23
2019-02-11T05:01:24.641Z,7.70
2019-02-11T05:03:50.464Z,8.00
2019-02-11T05:06:16.308Z,8.20
2019-02-11T05:08:42.119Z,7.33
2019-02-11T05:11:07.968Z,7.53
2019-02-11T05:13:33.787Z,7.73
2019-02-11T05:15:59.735Z,7.27
2019-02-11T05:18:25.547Z,5.83
2019-02-11T05:20:51.396Z,6.63
2019-02-11T05:23:17.209Z,7.23
2019-02-11T05:25:43.044Z,6.80
2019-02-11T05:28:08.859Z,5.80
2019-02-11T05:30:34.680Z,6.03
2019-02-11T05:33:00.667Z,6.93
2019-02-11T05:35:26.464Z,5.90
2019-02-11T05:37:52.312Z,6.77
2019-02-11T05:40:18.144Z,7.27
2019-02-11T05:42:43.992Z,7.00
2019-02-11T05:45:09.930Z,5.60
2019-02-11T05:47:35.777Z,7.03
2019-02-11T05:50:02.899Z,6.77
2019-02-11T05:52:28.816Z,7.30
2019-02-11T05:54:54.638Z,6.30
2019-02-11T05:57:20.499Z,5.93
2019-02-11T05:59:46.363Z,6.33
2019-02-11T06:02:13.831Z,6.23
2019-02-11T06:04:39.664Z,6.77
2019-02-11T06:07:05.481Z,5.87
2019-02-11T06:09:31.333Z,6.20
2019-02-11T06:11:57.140Z,5.17
2019-02-11T06:14:22.983Z,6.07
2019-02-11T06:16:48.798Z,5.63
2019-02-11T06:19:14.647Z,4.97
2019-02-11T06:21:40.475Z,5.40
2019-02-11T06:24:06.428Z,5.90
2019-02-11T06:26:32.245Z,5.50
2019-02-11T06:28:58.136Z,5.60
2019-02-11T06:31:23.939Z,5.93
2019-02-11T06:33:49.831Z,6.00
2019-02-11T06:36:15.658Z,5.97
2019-02-11T06:38:41.503Z,5.97
2019-02-11T06:41:07.319Z,5.90
2019-02-11T06:43:33.164Z,5.93
2019-02-11T06:45:59.093Z,6.23
2019-02-11T06:48:24.990Z,6.53
2019-02-11T06:50:50.800Z,6.30
2019-02-11T06:53:16.618Z,6.27
2019-02-11T06:55:42.455Z,6.50
2019-02-11T06:58:08.318Z,6.03
2019-02-11T07:00:34.190Z,6.27
2019-02-11T07:03:00.000Z,6.83
2019-02-11T07:05:25.844Z,6.20
2019-02-11T07:07:51.660Z,6.70
2019-02-11T07:10:17.537Z,5.83
2019-02-11T07:12:43.342Z,6.43
2019-02-11T07:15:11.318Z,6.77
2019-02-11T07:17:37.103Z,6.43
2019-02-11T07:20:06.546Z,6.10
2019-02-11T07:22:32.363Z,6.40
2019-02-11T07:24:58.210Z,6.10
2019-02-11T07:27:24.024Z,6.47
2019-02-11T07:29:50.337Z,7.00
2019-02-11T07:32:16.167Z,5.40
2019-02-11T07:34:42.037Z,7.40
2019-02-11T07:37:07.878Z,8.00
2019-02-11T07:39:33.693Z,7.37
2019-02-11T07:42:07.236Z,8.63
2019-02-11T07:44:33.065Z,8.53
2019-02-11T07:46:58.929Z,8.93
2019-02-11T07:49:24.758Z,8.83
2019-02-11T07:51:50.614Z,8.63
2019-02-11T07:54:16.455Z,8.33
2019-02-11T07:56:42.303Z,9.37
2019-02-11T07:59:08.172Z,9.07
2019-02-11T08:01:34.048Z,8.40
2019-02-11T08:03:59.998Z,9.67
2019-02-11T08:06:25.873Z,9.90
2019-02-11T08:08:51.936Z,9.03
2019-02-11T08:11:18.101Z,10.63
2019-02-11T08:13:43.929Z,10.13
2019-02-11T08:16:09.792Z,10.27
2019-02-11T08:18:35.630Z,10.20
2019-02-11T08:21:01.945Z,10.90
2019-02-11T08:23:27.887Z,10.93
2019-02-11T08:25:53.724Z,10.73
2019-02-11T08:28:19.910Z,10.43
2019-02-11T08:30:46.047Z,10.13
2019-02-11T08:33:12.009Z,10.90
2019-02-11T08:35:37.846Z,10.47
2019-02-11T08:38:03.684Z,9.40
2019-02-11T08:40:29.509Z,9.73
2019-02-11T08:42:55.376Z,10.30
2019-02-11T08:45:21.199Z,9.70
2019-02-11T08:47:47.056Z,9.73
2019-02-11T08:50:13.243Z,10.07
2019-02-11T08:52:39.096Z,10.07
2019-02-11T08:55:06.709Z,10.13
2019-02-11T08:57:32.552Z,9.47
2019-02-11T08:59:58.450Z,9.40
2019-02-11T09:02:24.604Z,9.57
2019-02-11T09:04:50.423Z,9.47
2019-02-11T09:07:16.242Z,9.20
2019-02-11T09:09:42.128Z,7.30
2019-02-11T09:12:07.953Z,8.60
2019-02-11T09:14:33.814Z,8.33
2019-02-11T09:16:59.643Z,8.80
2019-02-11T09:19:25.475Z,8.17
2019-02-11T09:21:51.311Z,7.33
2019-02-11T09:24:17.205Z,8.23
2019-02-11T09:26:43.214Z,7.50
2019-02-11T09:29:09.057Z,7.33
2019-02-11T09:31:34.910Z,7.73
2019-02-11T09:34:00.829Z,7.77
2019-02-11T09:36:26.677Z,7.13
2019-02-11T09:38:52.513Z,7.67
2019-02-11T09:41:18.468Z,7.70
2019-02-11T09:43:44.404Z,8.03
2019-02-11T09:46:10.264Z,7.70
2019-02-11T09:48:36.119Z,8.00
2019-02-11T09:51:03.174Z,8.00
2019-02-11T09:53:29.135Z,7.97
2019-02-11T09:55:54.971Z,7.43
2019-02-11T09:58:20.789Z,7.70
2019-02-11T10:00:46.872Z,7.37
2019-02-11T10:03:12.815Z,7.27
2019-02-11T10:05:38.665Z,7.37
2019-02-11T10:08:04.483Z,7.87
2019-02-11T10:10:30.428Z,7.00
2019-02-11T10:12:56.366Z,7.70
2019-02-11T10:15:22.361Z,8.10
2019-02-11T10:17:48.196Z,7.53
2019-02-11T10:20:14.724Z,7.67
2019-02-11T10:22:41.013Z,7.43
2019-02-11T10:25:13.132Z,7.63
2019-02-11T10:27:38.989Z,7.80
2019-02-11T10:30:08.629Z,7.70
2019-02-11T10:32:34.497Z,7.00
2019-02-11T10:35:00.363Z,7.40
2019-02-11T10:37:26.223Z,7.10
2019-02-11T10:39:52.032Z,7.23
2019-02-11T10:42:17.895Z,7.40
2019-02-11T10:44:43.830Z,6.87
2019-02-11T10:47:09.975Z,6.73
2019-02-11T10:49:35.833Z,6.00
2019-02-11T10:52:01.725Z,6.80
2019-02-11T10:54:27.754Z,6.80
2019-02-11T10:56:53.615Z,7.10
2019-02-11T10:59:19.484Z,6.40
2019-02-11T11:01:45.344Z,6.20
2019-02-11T11:04:11.384Z,6.27
2019-02-11T11:06:37.211Z,6.47
2019-02-11T11:09:06.382Z,6.17
2019-02-11T11:11:32.206Z,5.63
2019-02-11T11:13:58.068Z,5.83
2019-02-11T11:16:29.382Z,5.87
2019-02-11T11:18:51.671Z,5.50
2019-02-11T11:21:18.412Z,5.77
2019-02-11T11:23:44.259Z,5.00
2019-02-11T11:26:10.101Z,5.27
2019-02-11T11:28:37.449Z,5.30
2019-02-11T11:31:03.412Z,5.27
2019-02-11T11:33:29.240Z,5.67
2019-02-11T11:35:55.079Z,5.40
2019-02-11T11:38:21.455Z,5.60
2019-02-11T11:40:47.376Z,5.80
2019-02-11T11:43:13.344Z,5.83
2019-02-11T11:45:39.179Z,6.03
2019-02-11T11:48:04.991Z,6.30
2019-02-11T11:50:30.854Z,5.50
2019-02-11T11:52:56.703Z,6.43
2019-02-11T11:55:22.977Z,6.10
2019-02-11T11:57:48.912Z,5.83
2019-02-11T12:00:19.190Z,5.97
2019-02-11T12:03:00.370Z,6.63
2019-02-11T12:05:14.474Z,5.50
2019-02-11T12:07:40.414Z,6.10
2019-02-11T12:10:07.922Z,5.67
2019-02-11T12:12:33.739Z,6.03
2019-02-11T12:14:59.606Z,6.80
2019-02-11T12:17:25.477Z,7.00
2019-02-11T12:19:51.332Z,7.20
2019-02-11T12:22:17.149Z,7.00
2019-02-11T12:24:43.292Z,7.07
2019-02-11T12:27:09.207Z,7.20
2019-02-11T12:29:35.243Z,7.33
2019-02-11T12:32:01.193Z,7.90
2019-02-11T12:34:27.006Z,8.53
2019-02-11T12:36:52.848Z,8.43
2019-02-11T12:39:18.677Z,8.17
2019-02-11T12:41:44.539Z,7.73
2019-02-11T12:44:10.354Z,7.27
2019-02-11T12:46:36.225Z,6.03
2019-02-11T12:49:02.051Z,6.03
2019-02-11T12:51:27.936Z,4.97
2019-02-11T12:53:53.811Z,5.73
2019-02-11T12:56:19.629Z,6.40
2019-02-11T12:58:45.496Z,7.33
2019-02-11T13:01:11.478Z,6.57
2019-02-11T13:03:38.070Z,6.47
2019-02-11T13:06:04.482Z,6.57
2019-02-11T13:08:30.337Z,6.60
2019-02-11T13:10:56.191Z,6.83
2019-02-11T13:13:22.048Z,6.73
2019-02-11T13:16:01.575Z,6.10
2019-02-11T13:18:16.057Z,5.70
2019-02-11T13:20:42.036Z,5.77
2019-02-11T13:23:07.979Z,4.80
2019-02-11T13:25:33.828Z,4.33
2019-02-11T13:27:59.735Z,4.83
2019-02-11T13:30:25.681Z,4.67
2019-02-11T13:32:51.635Z,4.40
2019-02-11T13:35:17.605Z,4.63
2019-02-11T13:37:43.903Z,4.60
2019-02-11T13:40:10.231Z,4.07
2019-02-11T13:42:36.217Z,3.10
2019-02-11T13:45:05.854Z,2.80
2019-02-11T13:47:31.811Z,2.90
2019-02-11T13:49:57.710Z,2.67
2019-02-11T13:52:23.640Z,2.00
2019-02-11T13:54:49.617Z,2.40
2019-02-11T13:57:15.544Z,2.23
2019-02-11T13:59:41.435Z,2.10
2019-02-11T14:02:07.656Z,2.30
2019-02-11T14:04:33.736Z,2.60
2019-02-11T14:06:59.708Z,2.37
2019-02-11T14:09:27.710Z,3.60
2019-02-11T14:11:53.553Z,2.87
2019-02-11T14:14:23.244Z,3.00
2019-02-11T14:16:49.086Z,2.50
2019-02-11T14:19:14.950Z,2.17
2019-02-11T14:21:40.785Z,1.97
2019-02-11T14:24:06.700Z,2.00
2019-02-11T14:26:32.570Z,2.17
2019-02-11T14:28:58.526Z,2.17
2019-02-11T14:31:24.367Z,2.10
2019-02-11T14:33:50.333Z,1.70
2019-02-11T14:36:16.289Z,1.73
2019-02-11T14:38:42.273Z,1.40
2019-02-11T14:41:08.165Z,1.50
2019-02-11T14:43:33.983Z,1.50
2019-02-11T14:45:59.955Z,1.63
2019-02-11T14:48:28.638Z,1.90
2019-02-11T14:50:55.481Z,1.70
2019-02-11T14:53:21.332Z,1.50
2019-02-11T14:55:47.618Z,1.37
2019-02-11T14:58:13.459Z,1.20
2019-02-11T15:00:39.332Z,1.60
2019-02-11T15:03:05.160Z,1.23
2019-02-11T15:05:30.997Z,1.40
2019-02-11T15:07:56.875Z,1.43
2019-02-11T15:10:22.721Z,1.30
2019-02-11T15:12:48.650Z,1.80
2019-02-11T15:15:14.581Z,1.50
2019-02-11T15:17:43.069Z,1.60
2019-02-11T15:20:11.197Z,1.90
2019-02-11T15:22:37.065Z,1.73
2019-02-11T15:25:06.315Z,2.00
2019-02-11T15:27:32.252Z,1.80
2019-02-11T15:29:58.098Z,2.27
2019-02-11T15:32:23.976Z,2.30
2019-02-11T15:34:49.812Z,2.20
2019-02-11T15:37:15.684Z,2.40
2019-02-11T15:39:41.540Z,2.73
2019-02-11T15:42:07.534Z,2.10
2019-02-11T15:44:33.529Z,2.30
2019-02-11T15:46:59.376Z,2.50
2019-02-11T15:49:25.229Z,2.90
2019-02-11T15:51:51.124Z,2.17
2019-02-11T15:54:17.021Z,2.47
2019-02-11T15:56:42.868Z,2.47
2019-02-11T15:59:09.290Z,2.40
2019-02-11T16:01:35.281Z,2.27
2019-02-11T16:04:01.172Z,2.70
2019-02-11T16:06:27.062Z,2.50
2019-02-11T16:08:52.949Z,2.80
2019-02-11T16:11:18.804Z,2.57
2019-02-11T16:13:44.803Z,2.33
2019-02-11T16:16:10.801Z,2.33
2019-02-11T16:18:36.642Z,2.73
2019-02-11T16:21:02.929Z,2.37
2019-02-11T16:23:28.797Z,2.83
2019-02-11T16:25:55.044Z,3.43
2019-02-11T16:28:21.001Z,3.70
2019-02-11T16:30:46.961Z,3.37
2019-02-11T16:33:12.791Z,2.87
2019-02-11T16:35:38.755Z,3.07
2019-02-11T16:38:06.496Z,2.67
2019-02-11T16:40:32.834Z,2.50
2019-02-11T16:42:58.667Z,2.10
2019-02-11T16:45:24.645Z,2.57
2019-02-11T16:47:50.496Z,2.07
2019-02-11T16:50:16.437Z,2.70
2019-02-11T16:52:42.336Z,2.73
2019-02-11T16:55:09.502Z,2.73
2019-02-11T16:57:35.404Z,2.50
2019-02-11T17:00:01.796Z,2.10
2019-02-11T17:02:27.760Z,2.53
2019-02-11T17:04:53.698Z,3.57
2019-02-11T17:07:19.546Z,2.50
2019-02-11T17:09:45.383Z,2.23
2019-02-11T17:12:11.618Z,3.00
2019-02-11T17:14:37.577Z,2.40
2019-02-11T17:17:03.577Z,2.10
2019-02-11T17:19:29.418Z,2.10
2019-02-11T17:21:55.424Z,2.27
2019-02-11T17:24:21.357Z,2.60
2019-02-11T17:26:48.202Z,2.27
2019-02-11T17:29:14.090Z,2.30
2019-02-11T17:31:40.074Z,2.30
2019-02-11T17:34:05.936Z,2.13
2019-02-11T17:36:31.825Z,2.70
2019-02-11T17:38:57.704Z,2.90
2019-02-11T17:41:23.649Z,2.40
2019-02-11T17:43:49.653Z,3.40
2019-02-11T17:46:15.623Z,2.87
2019-02-11T17:48:41.436Z,2.97
2019-02-11T17:51:07.381Z,2.50
2019-02-11T17:53:33.406Z,2.80
2019-02-11T17:55:59.289Z,2.80
2019-02-11T17:58:25.259Z,2.80
2019-02-11T18:00:53.156Z,2.53
2019-02-11T18:03:19.031Z,2.70
2019-02-11T18:05:45.001Z,2.93
2019-02-11T18:08:11.101Z,3.50
2019-02-11T18:10:37.057Z,3.13
2019-02-11T18:13:03.072Z,3.63
2019-02-11T18:15:29.057Z,3.80
2019-02-11T18:17:55.122Z,3.83
2019-02-11T18:20:21.124Z,3.47
2019-02-11T18:22:47.043Z,4.00
2019-02-11T18:25:13.016Z,4.17
2019-02-11T18:27:38.951Z,3.80
2019-02-11T18:30:09.124Z,3.83
2019-02-11T18:32:35.187Z,4.30
2019-02-11T18:35:01.679Z,3.73
2019-02-11T18:37:27.545Z,3.90
2019-02-11T18:39:53.504Z,3.40
2019-02-11T18:42:19.364Z,4.17
2019-02-11T18:44:45.542Z,4.07
2019-02-11T18:47:11.392Z,4.43
2019-02-11T18:49:37.346Z,4.40
2019-02-11T18:52:03.324Z,3.80
2019-02-11T18:54:29.230Z,3.43
2019-02-11T18:56:55.092Z,3.50
2019-02-11T18:59:24.739Z,3.60
2019-02-11T19:01:49.283Z,3.60
2019-02-11T19:04:15.763Z,3.60
2019-02-11T19:06:41.849Z,3.67
2019-02-11T19:09:09.736Z,3.43
2019-02-11T19:11:35.635Z,3.37
2019-02-11T19:14:01.585Z,4.00
2019-02-11T19:16:27.736Z,3.90
2019-02-11T19:18:53.785Z,3.73
2019-02-11T19:21:19.768Z,3.37
2019-02-11T19:23:45.602Z,3.50
2019-02-11T19:26:11.593Z,3.90
2019-02-11T19:28:37.453Z,3.97
2019-02-11T19:31:04.140Z,3.60
2019-02-11T19:33:29.992Z,4.27
2019-02-11T19:35:56.006Z,3.80
2019-02-11T19:38:21.880Z,4.10
2019-02-11T19:40:47.714Z,4.73
2019-02-11T19:43:14.075Z,3.97
2019-02-11T19:45:40.069Z,3.93
2019-02-11T19:48:06.020Z,4.70
2019-02-11T19:50:31.853Z,4.90
2019-02-11T19:52:57.883Z,4.87
2019-02-11T19:55:23.848Z,4.73
2019-02-11T19:57:49.745Z,5.20
2019-02-11T20:00:20.980Z,5.70
2019-02-11T20:02:47.882Z,5.93
2019-02-11T20:05:13.963Z,5.93
2019-02-11T20:07:40.040Z,5.90
2019-02-11T20:10:09.721Z,6.07
2019-02-11T20:12:35.732Z,6.03
2019-02-11T20:15:03.213Z,5.90
2019-02-11T20:17:29.257Z,5.27
2019-02-11T20:20:00.356Z,5.37
2019-02-11T20:22:23.086Z,5.50
2019-02-11T20:24:49.182Z,5.40
2019-02-11T20:27:15.052Z,5.50
2019-02-11T20:29:41.040Z,4.93
2019-02-11T20:32:06.868Z,5.97
2019-02-11T20:34:32.877Z,5.67
2019-02-11T20:36:59.216Z,5.60
2019-02-11T20:39:25.214Z,5.90
2019-02-11T20:41:51.163Z,6.37
2019-02-11T20:44:17.023Z,5.93
2019-02-11T20:46:42.986Z,5.90
2019-02-11T20:49:09.052Z,6.23
2019-02-11T20:51:34.998Z,6.10
2019-02-11T20:54:01.099Z,7.03
2019-02-11T20:56:27.494Z,7.60
2019-02-11T20:58:55.980Z,7.53
2019-02-11T21:01:23.834Z,7.83
2019-02-11T21:03:49.801Z,7.83
2019-02-11T21:06:15.751Z,7.10
2019-02-11T21:08:41.602Z,7.97
2019-02-11T21:11:07.489Z,6.90
2019-02-11T21:13:33.546Z,6.30
2019-02-11T21:15:59.524Z,6.43
2019-02-11T21:18:25.452Z,6.67
2019-02-11T21:20:51.402Z,6.20
2019-02-11T21:23:17.360Z,6.70
2019-02-11T21:25:43.553Z,6.90
2019-02-11T21:28:09.405Z,6.87
2019-02-11T21:30:35.647Z,7.23
2019-02-11T21:33:01.519Z,7.03
2019-02-11T21:35:27.404Z,6.77
2019-02-11T21:37:53.370Z,6.13
2019-02-11T21:40:22.526Z,6.37
2019-02-11T21:42:48.386Z,6.93
2019-02-11T21:45:14.572Z,7.70
2019-02-11T21:47:40.505Z,7.70
2019-02-11T21:50:15.104Z,8.37
2019-02-11T21:52:40.951Z,7.57
2019-02-11T21:55:12.784Z,8.07
2019-02-11T21:57:38.821Z,8.50
2019-02-11T22:00:14.234Z,7.97
2019-02-11T22:02:40.095Z,8.40
2019-02-11T22:05:07.050Z,8.40
2019-02-11T22:07:32.863Z,8.77
2019-02-11T22:09:58.716Z,8.27
2019-02-11T22:12:24.552Z,8.90
2019-02-11T22:14:50.395Z,10.13
2019-02-11T22:17:16.713Z,9.37
2019-02-11T22:19:42.538Z,9.07
2019-02-11T22:22:08.402Z,9.17
2019-02-11T22:24:36.325Z,8.80
2019-02-11T22:27:02.164Z,8.97
2019-02-11T22:29:28.015Z,8.90
2019-02-11T22:31:53.866Z,8.43
2019-02-11T22:34:19.872Z,8.43
2019-02-11T22:36:45.721Z,8.93
2019-02-11T22:39:11.623Z,9.13
2019-02-11T22:41:37.465Z,13.00
2019-02-11T22:44:03.357Z,13.67
2019-02-11T22:46:29.245Z,15.83
2019-02-11T22:48:55.122Z,15.93
2019-02-11T22:51:21.063Z,12.23
2019-02-11T22:53:46.916Z,11.00
2019-02-11T22:56:12.740Z,10.17
2019-02-11T22:58:38.696Z,9.23
2019-02-11T23:01:06.243Z,10.03
2019-02-11T23:03:32.780Z,9.53
2019-02-11T23:06:01.484Z,10.97
2019-02-11T23:08:27.438Z,8.80
2019-02-11T23:10:53.261Z,10.23
2019-02-11T23:13:19.180Z,10.20
2019-02-11T23:15:45.158Z,8.47
2019-02-11T23:18:10.987Z,9.37
2019-02-11T23:20:36.867Z,8.30
2019-02-11T23:23:02.832Z,8.30
2019-02-11T23:25:28.772Z,6.97
2019-02-11T23:27:54.592Z,7.27
2019-02-11T23:30:20.509Z,7.13
2019-02-11T23:32:46.607Z,7.67
2019-02-11T23:35:12.453Z,7.57
2019-02-11T23:37:38.282Z,7.33
2019-02-11T23:40:06.952Z,7.50
2019-02-11T23:42:32.808Z,8.17
2019-02-11T23:44:58.658Z,8.53
2019-02-11T23:47:24.492Z,7.70
2019-02-11T23:49:50.910Z,8.63
2019-02-11T23:52:16.734Z,8.63
2019-02-11T23:54:42.573Z,8.43
2019-02-11T23:57:08.412Z,8.30
2019-02-11T23:59:34.250Z,8.17
